createdAt,value
2023-05-23T00:00:53.469Z,53.58
2023-05-23T00:01:53.541Z,54.30
2023-05-23T00:02:53.582Z,51.74
2023-05-23T00:03:53.605Z,52.63
2023-05-23T00:04:53.534Z,50.46
2023-05-23T00:05:53.571Z,50.36
2023-05-23T00:06:53.574Z,51.79
2023-05-23T00:07:53.610Z,53.83
2023-05-23T00:08:53.992Z,50.83
2023-05-23T00:09:53.633Z,51.21
2023-05-23T00:10:53.656Z,52.34
2023-05-23T00:11:53.661Z,54.45
2023-05-23T00:12:53.705Z,53.87
2023-05-23T00:13:53.705Z,50.07
2023-05-23T00:14:53.813Z,51.05
2023-05-23T00:15:53.740Z,52.63
2023-05-23T00:16:53.820Z,52.18
2023-05-23T00:17:53.818Z,52.13
2023-05-23T00:18:53.781Z,48.96
2023-05-23T00:19:53.726Z,50.83
2023-05-23T00:20:53.716Z,51.39
2023-05-23T00:21:53.732Z,54.43
2023-05-23T00:22:53.725Z,51.30
2023-05-23T00:23:53.730Z,49.77
2023-05-23T00:24:54.490Z,48.49
2023-05-23T00:25:53.770Z,51.83
2023-05-23T00:26:53.775Z,50.54
2023-05-23T00:27:53.788Z,49.45
2023-05-23T00:28:53.802Z,50.25
2023-05-23T00:29:53.818Z,50.13
2023-05-23T00:30:53.959Z,49.68
2023-05-23T00:31:53.846Z,48.98
2023-05-23T00:32:53.900Z,50.22
2023-05-23T00:33:53.870Z,47.12
2023-05-23T00:34:53.879Z,47.84
2023-05-23T00:35:53.880Z,49.35
2023-05-23T00:36:53.899Z,51.87
2023-05-23T00:37:53.922Z,47.70
2023-05-23T00:38:53.948Z,49.05
2023-05-23T00:39:53.947Z,49.87
2023-05-23T00:40:53.954Z,48.58
2023-05-23T00:41:53.973Z,50.69
2023-05-23T00:42:53.985Z,48.31
2023-05-23T00:43:53.998Z,47.62
2023-05-23T00:44:54.105Z,45.13
2023-05-23T00:45:54.105Z,47.28
2023-05-23T00:46:54.209Z,46.16
2023-05-23T00:47:54.111Z,49.86
2023-05-23T00:48:54.101Z,48.17
2023-05-23T00:49:54.102Z,50.21
2023-05-23T00:50:54.128Z,48.54
2023-05-23T00:51:54.133Z,47.21
2023-05-23T00:52:54.154Z,48.88
2023-05-23T00:53:54.172Z,47.97
2023-05-23T00:54:54.174Z,45.79
2023-05-23T00:55:54.187Z,49.26
2023-05-23T00:56:54.244Z,47.70
2023-05-23T00:57:54.192Z,46.88
2023-05-23T00:58:54.241Z,46.03
2023-05-23T00:59:54.299Z,49.94
2023-05-23T01:00:54.231Z,46.56
2023-05-23T01:01:54.291Z,49.52
2023-05-23T01:02:54.455Z,47.30
2023-05-23T01:03:54.358Z,47.60
2023-05-23T01:04:54.286Z,46.68
2023-05-23T01:05:54.342Z,47.98
2023-05-23T01:06:54.288Z,45.53
2023-05-23T01:07:54.295Z,45.08
2023-05-23T01:08:54.360Z,46.50
2023-05-23T01:09:55.002Z,47.01
2023-05-23T01:10:54.324Z,48.24
2023-05-23T01:11:54.346Z,47.51
2023-05-23T01:12:54.351Z,51.59
2023-05-23T01:13:54.380Z,47.36
2023-05-23T01:14:54.478Z,49.29
2023-05-23T01:15:54.447Z,49.77
2023-05-23T01:16:54.503Z,49.85
2023-05-23T01:17:54.485Z,47.23
2023-05-23T01:18:54.913Z,44.60
2023-05-23T01:19:54.462Z,48.08
2023-05-23T01:20:54.538Z,45.64
2023-05-23T01:21:54.473Z,52.04
2023-05-23T01:22:54.491Z,45.99
2023-05-23T01:23:54.515Z,45.75
2023-05-23T01:24:54.518Z,44.64
2023-05-23T01:25:54.528Z,47.04
2023-05-23T01:26:54.553Z,48.09
2023-05-23T01:27:54.558Z,44.14
2023-05-23T01:28:54.581Z,47.39
2023-05-23T01:29:54.596Z,45.77
2023-05-23T01:30:54.617Z,44.68
2023-05-23T01:31:54.683Z,47.61
2023-05-23T01:32:55.053Z,46.46
2023-05-23T01:33:54.675Z,44.78
2023-05-23T01:34:54.782Z,46.91
2023-05-23T01:35:54.715Z,45.59
2023-05-23T01:36:54.734Z,46.27
2023-05-23T01:37:54.750Z,47.08
2023-05-23T01:38:54.764Z,47.98
2023-05-23T01:39:55.022Z,45.01
2023-05-23T01:40:54.846Z,45.79
2023-05-23T01:41:54.911Z,45.26
2023-05-23T01:42:54.851Z,46.28
2023-05-23T01:43:54.880Z,46.08
2023-05-23T01:44:54.914Z,47.06
2023-05-23T01:45:54.947Z,46.52
2023-05-23T01:46:54.933Z,44.86
2023-05-23T01:47:55.060Z,45.68
2023-05-23T01:48:54.973Z,46.67
2023-05-23T01:49:54.988Z,44.98
2023-05-23T01:50:55.090Z,45.26
2023-05-23T01:51:55.022Z,44.86
2023-05-23T01:52:55.064Z,45.13
2023-05-23T01:53:55.055Z,45.12
2023-05-23T01:54:55.083Z,45.31
2023-05-23T01:55:55.084Z,44.79
2023-05-23T01:56:55.103Z,46.33
2023-05-23T01:57:55.134Z,45.94
2023-05-23T01:58:55.133Z,47.43
2023-05-23T01:59:55.156Z,44.87
2023-05-23T02:00:55.182Z,44.84
2023-05-23T02:01:55.183Z,45.65
2023-05-23T02:02:55.337Z,40.21
2023-05-23T02:03:55.216Z,47.17
2023-05-23T02:04:55.242Z,43.24
2023-05-23T02:05:55.239Z,44.90
2023-05-23T02:06:55.331Z,42.56
2023-05-23T02:07:55.278Z,49.57
2023-05-23T02:08:55.283Z,45.82
2023-05-23T02:09:55.325Z,42.05
2023-05-23T02:10:55.320Z,46.62
2023-05-23T02:11:55.420Z,45.17
2023-05-23T02:12:55.355Z,42.69
2023-05-23T02:13:55.333Z,42.45
2023-05-23T02:14:55.359Z,38.18
2023-05-23T02:15:55.430Z,43.04
2023-05-23T02:16:55.446Z,43.96
2023-05-23T02:17:55.432Z,44.45
2023-05-23T02:18:55.408Z,43.25
2023-05-23T02:19:55.409Z,42.97
2023-05-23T02:20:55.454Z,41.95
2023-05-23T02:21:55.461Z,43.99
2023-05-23T02:22:55.553Z,41.39
2023-05-23T02:23:56.051Z,43.01
2023-05-23T02:24:55.538Z,43.44
2023-05-23T02:25:55.513Z,41.30
2023-05-23T02:26:55.540Z,39.33
2023-05-23T02:27:55.553Z,40.90
2023-05-23T02:28:55.570Z,41.71
2023-05-23T02:29:55.585Z,39.83
2023-05-23T02:30:55.656Z,43.11
2023-05-23T02:31:55.611Z,39.95
2023-05-23T02:32:55.708Z,38.72
2023-05-23T02:33:55.638Z,42.38
2023-05-23T02:34:57.202Z,42.85
2023-05-23T02:35:55.684Z,39.95
2023-05-23T02:36:55.690Z,40.79
2023-05-23T02:37:56.551Z,39.36
2023-05-23T02:38:55.794Z,38.64
2023-05-23T02:39:56.048Z,41.57
2023-05-23T02:40:55.752Z,40.72
2023-05-23T02:41:55.755Z,42.20
2023-05-23T02:42:55.779Z,40.87
2023-05-23T02:43:55.807Z,41.43
2023-05-23T02:44:55.828Z,41.18
2023-05-23T02:45:55.929Z,43.29
2023-05-23T02:46:55.868Z,41.77
2023-05-23T02:47:55.969Z,41.31
2023-05-23T02:48:55.914Z,43.05
2023-05-23T02:49:55.944Z,43.63
2023-05-23T02:50:55.966Z,41.36
2023-05-23T02:51:56.536Z,40.21
2023-05-23T02:52:56.071Z,40.04
2023-05-23T02:53:56.032Z,40.16
2023-05-23T02:54:56.126Z,42.69
2023-05-23T02:55:56.054Z,40.59
2023-05-23T02:56:56.079Z,40.64
2023-05-23T02:57:56.106Z,37.89
2023-05-23T02:58:56.132Z,40.61
2023-05-23T02:59:56.154Z,41.41
2023-05-23T03:00:56.159Z,40.47
2023-05-23T03:01:57.077Z,41.36
2023-05-23T03:02:56.248Z,42.25
2023-05-23T03:03:56.246Z,40.91
2023-05-23T03:04:56.177Z,39.02
2023-05-23T03:05:56.195Z,39.86
2023-05-23T03:06:56.189Z,39.29
2023-05-23T03:07:56.185Z,39.72
2023-05-23T03:08:56.180Z,37.93
2023-05-23T03:09:56.195Z,38.85
2023-05-23T03:10:56.313Z,39.83
2023-05-23T03:11:56.278Z,39.20
2023-05-23T03:12:56.245Z,41.14
2023-05-23T03:13:56.243Z,41.48
2023-05-23T03:14:56.262Z,38.51
2023-05-23T03:15:56.340Z,40.09
2023-05-23T03:16:56.284Z,38.32
2023-05-23T03:17:56.317Z,39.22
2023-05-23T03:18:56.412Z,39.62
2023-05-23T03:19:56.349Z,34.94
2023-05-23T03:20:56.373Z,38.16
2023-05-23T03:21:56.386Z,38.26
2023-05-23T03:22:56.390Z,41.04
2023-05-23T03:23:56.402Z,37.82
2023-05-23T03:24:56.410Z,39.58
2023-05-23T03:25:56.417Z,35.66
2023-05-23T03:26:57.144Z,42.32
2023-05-23T03:27:57.040Z,40.87
2023-05-23T03:28:56.476Z,37.42
2023-05-23T03:29:56.451Z,44.87
2023-05-23T03:30:56.467Z,39.87
2023-05-23T03:31:56.512Z,38.38
2023-05-23T03:32:56.530Z,38.69
2023-05-23T03:33:56.510Z,35.09
2023-05-23T03:34:56.524Z,38.05
2023-05-23T03:35:56.530Z,37.23
2023-05-23T03:36:56.518Z,37.80
2023-05-23T03:37:56.509Z,38.96
2023-05-23T03:38:56.554Z,37.98
2023-05-23T03:39:56.505Z,38.68
2023-05-23T03:40:57.120Z,39.07
2023-05-23T03:41:56.615Z,36.92
2023-05-23T03:42:56.628Z,34.51
2023-05-23T03:43:56.525Z,38.50
2023-05-23T03:44:56.522Z,35.23
2023-05-23T03:45:56.551Z,37.74
2023-05-23T03:46:56.533Z,36.94
2023-05-23T03:47:56.563Z,36.65
2023-05-23T03:48:56.600Z,35.25
2023-05-23T03:49:56.519Z,35.66
2023-05-23T03:50:56.611Z,40.00
2023-05-23T03:51:56.578Z,46.33
2023-05-23T03:52:56.514Z,36.84
2023-05-23T03:53:56.453Z,37.42
2023-05-23T03:54:56.423Z,38.53
2023-05-23T03:55:56.399Z,38.11
2023-05-23T03:56:56.395Z,34.86
2023-05-23T03:57:56.364Z,35.24
2023-05-23T03:58:56.279Z,35.44
2023-05-23T03:59:56.211Z,35.02
2023-05-23T04:00:56.155Z,36.84
2023-05-23T04:01:56.128Z,38.02
2023-05-23T04:02:56.129Z,38.03
2023-05-23T04:03:56.063Z,36.08
2023-05-23T04:04:55.939Z,36.85
2023-05-23T04:05:55.873Z,38.04
2023-05-23T04:06:55.836Z,35.53
2023-05-23T04:07:55.822Z,35.53
2023-05-23T04:08:55.784Z,38.47
2023-05-23T04:09:55.776Z,36.73
2023-05-23T04:10:55.829Z,34.13
2023-05-23T04:11:55.796Z,33.32
2023-05-23T04:12:55.761Z,34.57
2023-05-23T04:13:55.737Z,32.91
2023-05-23T04:14:55.849Z,36.37
2023-05-23T04:15:55.770Z,36.54
2023-05-23T04:16:56.563Z,34.23
2023-05-23T04:17:55.797Z,33.62
2023-05-23T04:18:55.846Z,33.89
2023-05-23T04:19:55.724Z,33.83
2023-05-23T04:20:55.711Z,32.43
2023-05-23T04:21:55.703Z,33.48
2023-05-23T04:22:55.712Z,34.54
2023-05-23T04:23:56.071Z,33.78
2023-05-23T04:24:56.088Z,37.52
2023-05-23T04:25:55.650Z,36.80
2023-05-23T04:26:55.638Z,34.65
2023-05-23T04:27:55.622Z,36.64
2023-05-23T04:28:55.626Z,33.41
2023-05-23T04:29:55.594Z,34.56
2023-05-23T04:30:55.707Z,35.38
2023-05-23T04:31:55.575Z,36.21
2023-05-23T04:32:55.622Z,34.88
2023-05-23T04:33:55.586Z,35.14
2023-05-23T04:34:55.573Z,36.10
2023-05-23T04:35:55.554Z,32.70
2023-05-23T04:36:55.525Z,33.12
2023-05-23T04:37:55.504Z,32.13
2023-05-23T04:38:55.513Z,35.66
2023-05-23T04:39:55.500Z,34.37
2023-05-23T04:40:55.616Z,33.75
2023-05-23T04:41:55.539Z,31.63
2023-05-23T04:42:55.465Z,35.45
2023-05-23T04:43:55.480Z,28.91
2023-05-23T04:44:55.450Z,31.57
2023-05-23T04:45:55.435Z,28.34
2023-05-23T04:46:55.554Z,35.04
2023-05-23T04:47:55.470Z,34.66
2023-05-23T04:48:55.461Z,33.67
2023-05-23T04:49:55.390Z,36.17
2023-05-23T04:50:55.376Z,38.67
2023-05-23T04:51:55.368Z,27.81
2023-05-23T04:52:55.349Z,32.89
2023-05-23T04:53:55.360Z,29.92
2023-05-23T04:54:55.322Z,34.42
2023-05-23T04:55:55.337Z,32.80
2023-05-23T04:56:55.326Z,31.51
2023-05-23T04:57:55.316Z,29.55
2023-05-23T04:58:55.324Z,30.38
2023-05-23T04:59:55.376Z,30.34
2023-05-23T05:00:55.409Z,33.22
2023-05-23T05:01:55.398Z,31.93
2023-05-23T05:02:55.556Z,31.28
2023-05-23T05:03:55.455Z,28.96
2023-05-23T05:04:55.415Z,35.04
2023-05-23T05:05:55.499Z,31.22
2023-05-23T05:06:55.454Z,38.35
2023-05-23T05:07:55.473Z,30.75
2023-05-23T05:08:55.452Z,27.66
2023-05-23T05:09:55.457Z,34.14
2023-05-23T05:10:55.463Z,29.24
2023-05-23T05:11:55.447Z,35.04
2023-05-23T05:12:55.539Z,30.38
2023-05-23T05:13:55.488Z,25.41
2023-05-23T05:14:55.494Z,28.73
2023-05-23T05:15:55.495Z,31.42
2023-05-23T05:16:55.525Z,29.19
2023-05-23T05:17:55.531Z,34.09
2023-05-23T05:18:55.611Z,32.41
2023-05-23T05:19:55.521Z,25.00
2023-05-23T05:20:55.549Z,32.01
2023-05-23T05:21:55.480Z,34.51
2023-05-23T05:22:55.477Z,34.25
2023-05-23T05:23:55.481Z,36.43
2023-05-23T05:24:55.499Z,41.83
2023-05-23T05:25:55.469Z,46.06
2023-05-23T05:26:55.474Z,45.25
2023-05-23T05:27:55.473Z,48.84
2023-05-23T05:28:55.514Z,59.15
2023-05-23T05:29:55.487Z,68.26
2023-05-23T05:30:55.563Z,77.28
2023-05-23T05:31:55.490Z,82.76
2023-05-23T05:32:55.502Z,86.80
2023-05-23T05:33:55.471Z,88.20
2023-05-23T05:34:55.552Z,85.06
2023-05-23T05:35:55.447Z,90.48
2023-05-23T05:36:55.442Z,91.49
2023-05-23T05:37:55.534Z,90.12
2023-05-23T05:38:55.433Z,94.62
2023-05-23T05:39:55.424Z,89.25
2023-05-23T05:40:55.405Z,92.37
2023-05-23T05:41:55.404Z,95.91
2023-05-23T05:42:55.381Z,96.26
2023-05-23T05:43:55.480Z,99.21
2023-05-23T05:44:55.382Z,98.36
2023-05-23T05:45:55.403Z,100.62
2023-05-23T05:46:56.287Z,101.00
2023-05-23T05:47:55.282Z,101.32
2023-05-23T05:48:55.255Z,100.80
2023-05-23T05:49:55.125Z,101.07
2023-05-23T05:50:55.147Z,100.95
2023-05-23T05:51:55.028Z,103.02
2023-05-23T05:52:54.970Z,103.98
2023-05-23T05:53:54.910Z,113.83
2023-05-23T05:54:54.855Z,116.54
2023-05-23T05:55:54.803Z,116.74
2023-05-23T05:56:54.748Z,114.27
2023-05-23T05:57:54.707Z,117.90
2023-05-23T05:58:54.640Z,123.18
2023-05-23T05:59:54.589Z,128.43
2023-05-23T06:00:54.538Z,131.83
2023-05-23T06:01:54.457Z,140.57
2023-05-23T06:02:54.606Z,148.01
2023-05-23T06:03:54.429Z,156.68
2023-05-23T06:04:54.364Z,159.97
2023-05-23T06:05:54.291Z,171.27
2023-05-23T06:06:54.218Z,177.57
2023-05-23T06:07:54.072Z,184.04
2023-05-23T06:08:54.077Z,187.10
2023-05-23T06:09:54.099Z,196.09
2023-05-23T06:10:54.063Z,208.91
2023-05-23T06:11:54.086Z,211.02
2023-05-23T06:12:54.033Z,219.92
2023-05-23T06:13:54.028Z,227.07
2023-05-23T06:14:54.023Z,232.97
2023-05-23T06:15:54.156Z,240.88
2023-05-23T06:16:54.015Z,245.43
2023-05-23T06:17:55.053Z,250.00
2023-05-23T06:18:55.072Z,250.00
2023-05-23T06:19:54.026Z,250.00
2023-05-23T06:20:54.000Z,247.39
2023-05-23T06:21:53.979Z,267.05
2023-05-23T06:22:54.072Z,248.50
2023-05-23T06:23:53.974Z,239.66
2023-05-23T06:24:53.992Z,237.35
2023-05-23T06:25:53.978Z,231.88
2023-05-23T06:26:53.999Z,232.23
2023-05-23T06:27:54.981Z,232.40
2023-05-23T06:28:53.921Z,232.29
2023-05-23T06:29:53.868Z,230.10
2023-05-23T06:30:53.728Z,229.08
2023-05-23T06:31:54.371Z,227.05
2023-05-23T06:32:53.627Z,226.45
2023-05-23T06:33:53.515Z,228.97
2023-05-23T06:34:53.467Z,225.00
2023-05-23T06:35:53.458Z,226.66
2023-05-23T06:36:53.344Z,224.05
2023-05-23T06:37:53.318Z,223.30
2023-05-23T06:38:53.297Z,223.17
2023-05-23T06:39:53.433Z,221.93
2023-05-23T06:40:53.068Z,224.27
2023-05-23T06:41:53.012Z,224.26
2023-05-23T06:42:52.939Z,222.30
2023-05-23T06:43:52.881Z,223.04
2023-05-23T06:44:52.810Z,221.92
2023-05-23T06:45:52.920Z,223.07
2023-05-23T06:46:52.714Z,222.12
2023-05-23T06:47:52.693Z,220.10
2023-05-23T06:49:02.727Z,219.94
2023-05-23T06:49:53.571Z,220.08
2023-05-23T06:50:52.562Z,220.14
2023-05-23T06:51:52.513Z,218.76
2023-05-23T06:52:52.382Z,218.34
2023-05-23T06:53:52.313Z,215.91
2023-05-23T06:54:53.219Z,216.93
2023-05-23T06:55:52.265Z,216.65
2023-05-23T06:56:52.113Z,213.21
2023-05-23T06:57:52.277Z,215.60
2023-05-23T06:58:51.990Z,214.38
2023-05-23T06:59:51.926Z,214.49
2023-05-23T07:00:51.905Z,213.61
2023-05-23T07:01:51.783Z,214.25
2023-05-23T07:02:51.773Z,215.40
2023-05-23T07:03:51.662Z,210.94
2023-05-23T07:04:51.711Z,212.49
2023-05-23T07:05:51.714Z,213.25
2023-05-23T07:06:51.507Z,211.81
2023-05-23T07:07:51.431Z,210.39
2023-05-23T07:08:51.442Z,209.79
2023-05-23T07:09:51.330Z,211.73
2023-05-23T07:10:51.332Z,210.17
2023-05-23T07:11:51.212Z,209.29
2023-05-23T07:12:51.228Z,208.60
2023-05-23T07:13:51.062Z,208.52
2023-05-23T07:14:51.096Z,209.85
2023-05-23T07:15:50.988Z,209.75
2023-05-23T07:16:50.976Z,207.25
2023-05-23T07:17:50.962Z,208.86
2023-05-23T07:18:50.884Z,208.91
2023-05-23T07:19:50.825Z,207.85
2023-05-23T07:20:50.807Z,207.39
2023-05-23T07:21:50.754Z,208.48
2023-05-23T07:22:50.727Z,208.53
2023-05-23T07:23:51.611Z,192.51
2023-05-23T07:24:50.681Z,181.84
2023-05-23T07:26:01.954Z,156.81
2023-05-23T07:26:51.737Z,141.02
2023-05-23T07:27:50.591Z,127.59
2023-05-23T07:28:50.546Z,100.44
2023-05-23T07:29:50.495Z,92.46
2023-05-23T07:30:50.471Z,84.78
2023-05-23T07:31:50.412Z,74.13
2023-05-23T07:32:50.375Z,62.20
2023-05-23T07:33:50.346Z,51.40
2023-05-23T07:34:51.302Z,51.45
2023-05-23T07:35:50.238Z,48.42
2023-05-23T07:36:50.220Z,34.79
2023-05-23T07:37:50.379Z,33.67
2023-05-23T07:38:50.094Z,31.23
2023-05-23T07:39:50.064Z,26.62
2023-05-23T07:40:58.829Z,25.10
2023-05-23T07:41:50.983Z,24.59
2023-05-23T07:42:50.005Z,11.31
2023-05-23T07:43:49.855Z,11.91
2023-05-23T07:44:49.820Z,20.69
2023-05-23T07:45:50.654Z,29.76
2023-05-23T07:46:49.746Z,31.42
2023-05-23T07:47:49.715Z,35.88
2023-05-23T07:48:49.616Z,32.30
2023-05-23T07:49:49.564Z,36.57
2023-05-23T07:50:49.518Z,38.84
2023-05-23T07:51:49.446Z,39.59
2023-05-23T07:52:49.375Z,31.02
2023-05-23T07:53:49.367Z,44.67
2023-05-23T07:54:49.320Z,49.88
2023-05-23T07:55:49.283Z,52.90
2023-05-23T07:56:49.230Z,50.34
2023-05-23T07:57:49.194Z,49.30
2023-05-23T07:58:49.172Z,51.84
2023-05-23T07:59:49.102Z,50.88
2023-05-23T08:00:50.425Z,47.38
2023-05-23T08:01:49.097Z,50.94
2023-05-23T08:02:48.958Z,53.15
2023-05-23T08:03:48.906Z,49.18
2023-05-23T08:04:48.937Z,46.00
2023-05-23T08:05:48.881Z,48.02
2023-05-23T08:07:04.077Z,53.83
2023-05-23T08:07:49.628Z,54.30
2023-05-23T08:08:49.295Z,55.42
2023-05-23T08:09:48.499Z,55.10
2023-05-23T08:10:48.513Z,56.13
2023-05-23T08:11:51.225Z,63.40
2023-05-23T08:12:48.326Z,64.48
2023-05-23T08:13:48.264Z,47.94
2023-05-23T08:14:52.079Z,50.08
2023-05-23T08:15:48.132Z,30.32
2023-05-23T08:16:48.116Z,10.93
2023-05-23T08:17:48.079Z,6.54
2023-05-23T08:18:47.957Z,4.88
2023-05-23T08:19:47.904Z,9.92
2023-05-23T08:20:47.821Z,25.69
2023-05-23T08:21:47.767Z,27.01
2023-05-23T08:22:47.724Z,34.29
2023-05-23T08:23:47.659Z,25.00
2023-05-23T08:24:47.577Z,26.28
2023-05-23T08:25:47.524Z,27.24
2023-05-23T08:26:47.464Z,43.87
2023-05-23T08:27:47.403Z,44.32
2023-05-23T08:28:48.170Z,48.34
2023-05-23T08:29:47.293Z,57.79
2023-05-23T08:30:47.224Z,66.68
2023-05-23T08:31:47.737Z,73.43
2023-05-23T08:32:47.118Z,77.22
2023-05-23T08:33:47.048Z,80.01
2023-05-23T08:34:47.036Z,82.80
2023-05-23T08:35:46.902Z,85.24
2023-05-23T08:36:46.889Z,85.08
2023-05-23T08:37:46.786Z,88.25
2023-05-23T08:38:47.631Z,89.15
2023-05-23T08:39:46.640Z,93.74
2023-05-23T08:40:46.585Z,93.00
2023-05-23T08:41:47.522Z,93.25
2023-05-23T08:42:46.501Z,93.98
2023-05-23T08:43:46.375Z,94.81
2023-05-23T08:44:46.307Z,97.70
2023-05-23T08:45:46.261Z,101.45
2023-05-23T08:46:46.273Z,102.84
2023-05-23T08:47:46.193Z,108.75
2023-05-23T08:48:46.049Z,113.97
2023-05-23T08:49:46.681Z,115.96
2023-05-23T08:50:46.042Z,117.31
2023-05-23T08:51:46.035Z,117.77
2023-05-23T08:52:46.026Z,121.34
2023-05-23T08:53:46.040Z,120.45
2023-05-23T08:54:46.676Z,123.33
2023-05-23T08:55:46.098Z,124.88
2023-05-23T08:56:46.047Z,123.11
2023-05-23T08:57:46.044Z,126.86
2023-05-23T08:58:46.063Z,126.21
2023-05-23T08:59:46.042Z,129.06
2023-05-23T09:00:46.027Z,132.10
2023-05-23T09:01:46.744Z,128.32
2023-05-23T09:02:46.091Z,132.27
2023-05-23T09:03:46.009Z,133.87
2023-05-23T09:04:46.007Z,130.20
2023-05-23T09:05:46.027Z,135.89
2023-05-23T09:06:45.988Z,130.32
2023-05-23T09:07:46.040Z,134.87
2023-05-23T09:08:46.035Z,137.23
2023-05-23T09:09:45.967Z,126.92
2023-05-23T09:10:45.966Z,131.82
2023-05-23T09:11:46.042Z,135.83
2023-05-23T09:12:45.946Z,137.05
2023-05-23T09:13:45.953Z,135.26
2023-05-23T09:14:45.930Z,133.83
2023-05-23T09:15:45.909Z,135.98
2023-05-23T09:16:45.895Z,136.16
2023-05-23T09:17:45.956Z,134.07
2023-05-23T09:18:45.857Z,137.22
2023-05-23T09:19:46.638Z,137.49
2023-05-23T09:20:45.826Z,131.82
2023-05-23T09:21:45.826Z,135.07
2023-05-23T09:22:46.209Z,133.07
2023-05-23T09:23:45.785Z,132.20
2023-05-23T09:24:45.816Z,130.83
2023-05-23T09:25:45.926Z,131.94
2023-05-23T09:26:45.771Z,133.04
2023-05-23T09:27:48.109Z,134.53
2023-05-23T09:28:45.684Z,132.17
2023-05-23T09:29:45.627Z,134.11
2023-05-23T09:30:46.219Z,132.86
2023-05-23T09:31:45.563Z,133.49
2023-05-23T09:32:46.478Z,132.91
2023-05-23T09:33:46.304Z,134.19
2023-05-23T09:34:46.511Z,136.17
2023-05-23T09:35:45.212Z,132.91
2023-05-23T09:36:45.096Z,134.46
2023-05-23T09:37:45.190Z,134.19
2023-05-23T09:38:44.980Z,137.70
2023-05-23T09:39:45.240Z,136.02
2023-05-23T09:40:44.837Z,137.87
2023-05-23T09:41:44.769Z,134.73
2023-05-23T09:42:44.706Z,135.45
2023-05-23T09:43:44.615Z,135.77
2023-05-23T09:44:44.545Z,137.48
2023-05-23T09:45:44.573Z,137.35
2023-05-23T09:46:44.463Z,135.60
2023-05-23T09:47:44.431Z,135.88
2023-05-23T09:48:44.266Z,136.24
2023-05-23T09:49:44.209Z,136.61
2023-05-23T09:50:44.138Z,136.24
2023-05-23T09:51:44.084Z,137.64
2023-05-23T09:52:44.110Z,139.02
2023-05-23T09:53:44.036Z,136.40
2023-05-23T09:54:44.040Z,135.89
2023-05-23T09:55:44.029Z,136.42
2023-05-23T09:56:44.026Z,136.86
2023-05-23T09:57:44.114Z,137.45
2023-05-23T09:58:44.021Z,135.85
2023-05-23T09:59:43.990Z,137.10
2023-05-23T10:00:44.217Z,136.72
2023-05-23T10:01:44.114Z,136.08
2023-05-23T10:02:44.002Z,135.77
2023-05-23T10:03:43.976Z,138.47
2023-05-23T10:04:44.297Z,137.52
2023-05-23T10:05:43.996Z,136.14
2023-05-23T10:06:43.980Z,135.20
2023-05-23T10:07:43.983Z,137.16
2023-05-23T10:08:43.993Z,134.58
2023-05-23T10:09:43.999Z,135.30
2023-05-23T10:10:44.007Z,135.78
2023-05-23T10:11:44.004Z,136.97
2023-05-23T10:12:44.014Z,136.12
2023-05-23T10:13:44.000Z,133.52
2023-05-23T10:14:43.978Z,135.28
2023-05-23T10:15:43.985Z,137.40
2023-05-23T10:16:44.063Z,134.18
2023-05-23T10:17:43.989Z,135.22
2023-05-23T10:18:44.271Z,134.90
2023-05-23T10:19:44.646Z,133.66
2023-05-23T10:20:43.949Z,134.38
2023-05-23T10:21:46.210Z,132.65
2023-05-23T10:22:43.822Z,134.29
2023-05-23T10:23:43.757Z,135.15
2023-05-23T10:24:43.705Z,134.91
2023-05-23T10:25:43.617Z,134.69
2023-05-23T10:26:43.553Z,130.80
2023-05-23T10:27:43.476Z,132.18
2023-05-23T10:28:43.416Z,131.66
2023-05-23T10:29:43.354Z,134.16
2023-05-23T10:30:44.381Z,131.80
2023-05-23T10:31:43.337Z,133.87
2023-05-23T10:32:43.148Z,133.22
2023-05-23T10:33:43.067Z,134.44
2023-05-23T10:34:43.036Z,132.96
2023-05-23T10:35:42.989Z,130.98
2023-05-23T10:36:42.845Z,134.30
2023-05-23T10:37:42.792Z,132.86
2023-05-23T10:38:44.223Z,129.66
2023-05-23T10:39:42.644Z,131.10
2023-05-23T10:40:42.711Z,130.54
2023-05-23T10:41:42.499Z,131.13
2023-05-23T10:42:42.451Z,130.90
2023-05-23T10:43:42.392Z,132.09
2023-05-23T10:44:42.307Z,131.17
2023-05-23T10:45:43.257Z,128.38
2023-05-23T10:46:42.221Z,129.74
2023-05-23T10:47:42.228Z,129.74
2023-05-23T10:48:42.056Z,126.94
2023-05-23T10:49:41.977Z,129.45
2023-05-23T10:50:42.352Z,128.18
2023-05-23T10:51:42.717Z,126.68
2023-05-23T10:52:41.760Z,130.56
2023-05-23T10:53:41.704Z,126.82
2023-05-23T10:54:41.646Z,128.45
2023-05-23T10:55:41.581Z,125.56
2023-05-23T10:56:41.559Z,128.40
2023-05-23T10:57:41.527Z,126.54
2023-05-23T10:58:41.514Z,124.81
2023-05-23T10:59:41.415Z,125.17
2023-05-23T11:00:41.590Z,124.96
2023-05-23T11:01:41.412Z,122.78
2023-05-23T11:02:41.436Z,124.32
2023-05-23T11:03:41.364Z,123.32
2023-05-23T11:04:41.843Z,126.56
2023-05-23T11:05:41.244Z,124.46
2023-05-23T11:06:41.512Z,122.17
2023-05-23T11:07:41.471Z,122.87
2023-05-23T11:08:47.583Z,121.98
2023-05-23T11:09:42.042Z,122.22
2023-05-23T11:10:41.518Z,122.49
2023-05-23T11:11:41.754Z,122.91
2023-05-23T11:12:40.811Z,122.99
2023-05-23T11:13:40.758Z,123.58
2023-05-23T11:14:40.694Z,122.62
2023-05-23T11:15:40.603Z,120.15
2023-05-23T11:16:40.561Z,121.47
2023-05-23T11:17:40.474Z,119.55
2023-05-23T11:18:40.449Z,120.91
2023-05-23T11:19:40.445Z,118.12
2023-05-23T11:20:40.506Z,120.85
2023-05-23T11:21:40.172Z,120.55
2023-05-23T11:22:40.116Z,117.61
2023-05-23T11:23:40.049Z,117.30
2023-05-23T11:24:40.040Z,118.41
2023-05-23T11:25:39.938Z,117.25
2023-05-23T11:26:39.887Z,118.89
2023-05-23T11:27:39.839Z,117.20
2023-05-23T11:28:40.746Z,118.43
2023-05-23T11:29:39.736Z,118.12
2023-05-23T11:30:39.832Z,116.90
2023-05-23T11:31:40.383Z,117.42
2023-05-23T11:32:39.577Z,117.99
2023-05-23T11:33:39.475Z,116.03
2023-05-23T11:34:39.414Z,114.30
2023-05-23T11:35:39.371Z,117.05
2023-05-23T11:36:42.793Z,117.58
2023-05-23T11:37:39.241Z,120.56
2023-05-23T11:38:39.151Z,119.04
2023-05-23T11:39:40.632Z,118.96
2023-05-23T11:40:39.667Z,119.06
2023-05-23T11:41:42.122Z,118.81
2023-05-23T11:42:38.861Z,118.94
2023-05-23T11:43:38.790Z,119.06
2023-05-23T11:44:38.743Z,118.84
2023-05-23T11:45:39.350Z,114.60
2023-05-23T11:46:38.657Z,115.21
2023-05-23T11:47:38.537Z,114.83
2023-05-23T11:48:38.464Z,115.14
2023-05-23T11:49:39.256Z,116.32
2023-05-23T11:50:38.333Z,113.51
2023-05-23T11:51:38.328Z,113.75
2023-05-23T11:52:38.185Z,113.30
2023-05-23T11:53:38.139Z,113.24
2023-05-23T11:54:38.048Z,111.67
2023-05-23T11:55:37.974Z,110.97
2023-05-23T11:56:38.754Z,110.70
2023-05-23T11:57:37.820Z,112.16
2023-05-23T11:58:37.756Z,112.83
2023-05-23T11:59:37.703Z,108.74
2023-05-23T12:00:38.281Z,110.00
2023-05-23T12:01:37.537Z,110.29
2023-05-23T12:02:37.586Z,113.48
2023-05-23T12:03:37.687Z,110.74
2023-05-23T12:04:37.454Z,110.95
2023-05-23T12:05:37.256Z,112.36
2023-05-23T12:06:37.276Z,111.55
2023-05-23T12:07:37.152Z,109.06
2023-05-23T12:08:37.060Z,108.66
2023-05-23T12:09:36.971Z,109.89
2023-05-23T12:10:36.926Z,108.99
2023-05-23T12:11:36.817Z,109.75
2023-05-23T12:12:36.737Z,109.95
2023-05-23T12:13:36.680Z,109.53
2023-05-23T12:14:36.616Z,108.76
2023-05-23T12:15:36.540Z,107.42
2023-05-23T12:16:36.470Z,106.88
2023-05-23T12:17:36.375Z,106.48
2023-05-23T12:18:36.281Z,108.55
2023-05-23T12:19:36.331Z,108.41
2023-05-23T12:20:36.127Z,109.98
2023-05-23T12:21:36.066Z,108.02
2023-05-23T12:22:35.971Z,109.01
2023-05-23T12:23:35.969Z,106.77
2023-05-23T12:24:35.854Z,109.04
2023-05-23T12:25:35.764Z,108.00
2023-05-23T12:26:35.674Z,106.25
2023-05-23T12:27:35.618Z,106.16
2023-05-23T12:28:35.556Z,106.71
2023-05-23T12:29:35.841Z,106.16
2023-05-23T12:30:35.400Z,106.59
2023-05-23T12:31:35.345Z,106.00
2023-05-23T12:32:35.402Z,107.60
2023-05-23T12:33:35.247Z,105.77
2023-05-23T12:34:35.830Z,107.02
2023-05-23T12:35:35.276Z,103.55
2023-05-23T12:36:39.640Z,106.89
2023-05-23T12:37:36.094Z,107.01
2023-05-23T12:38:35.015Z,107.15
2023-05-23T12:39:34.949Z,107.78
2023-05-23T12:40:35.269Z,106.78
2023-05-23T12:41:34.810Z,105.84